Airfield :
LOGIN :

Register | Disclaimer

   EN    FR    IT 

 










Legend :    VFR   Marginal VFR   IFR   Intensive IFR   Very Intensive IFR
Visi :
Ceiling :
>= 8 km
>= 3000ft
5 to 8 km
1000 to 3000 ft
1500m to 5 km
500 to 1000 ft
800 to 1500m
200 to 500 ft
< 800m
< 200 ft
Symbols :   Thunderstorms  Fog  Heavy snow  Heavy precipitations  Wind > 20 kt
SIGMETs :     Misc.  Thunderstorms  Icing  Turbulence  Mountain Waves  Volcanic Ashes






- Airport Elevation : 1682 ft
- IATA code : VIT


LEVT - Vitoria Gasteiz

CURRENT METAR :
  • 152300Z 19001KT 9999 BKN055 11/04 Q1007

EXPIRED METARs :
  • 152230Z 18002KT 9999 BKN054 11/04 Q1007
  • 152200Z 29003KT 9999 BKN054 11/05 Q1008
  • 152130Z 14008KT 100V170 9999 SCT055 BKN065 12/04 Q1008
  • 152100Z 14009KT 110V170 9999 FEW055 BKN065 12/04 Q1008
  • 152030Z 14011KT 9999 BKN060 12/04 Q1008

TAF TAF LEVT
Valid from the 15 at 18:00 until the 16 at 18:00 UTC


151700Z 1518/1618 VRB05KT 9999 SCT045 TX12/1518Z TN06/1604Z
BECMG 1603/1607 15010KT
TEMPO 1606/1618 15015G25KT
PROB30
TEMPO 1608/1618 15020G30KT
PROB30
TEMPO 1609/1618 15025G38KT



MET'MAP, your aeronautical weather chart ! - Copyright ORBIFLY December 2007 - Disclaimer

ORBIFLY MET'MAP TEAM :

Programming & Development : Alexandra Zaïnal
Concept & original design : Baudouin d'Aumeries
Assistance for programming : Marc-Olivier Méhu
Technical & hardware support : Manuel Goepfert

Contact : metmap@orbifly.com




SOURCES & CREDITS :

   NOAA